Estación Fecha y Hora Temperatura Temperatura Mínima Temperatura Máxima Humedad Presión Velocidad del Viento Dirección del Viento Precipitación
Bulilla 08/05/2024 08:05 8.8 8.5 14.1 86 1020.9 3.6 SSW 0.0
Ciudad 27/05/2024 22:50 19.4 16.6 30.4 73 1018.6 11 ENE 0.0
Villa-Ventín 27/05/24 22:49 19.2 13.1 30.7 73 1014.7 1.6 146 0.0
Finca Hnos. Guerrero 27/05/24 22:50 19.7 15.2 31.7 70 1015.2 22.5 32 0.0
Finca Balaguer 27/05/2024 22:50 19.3 16.2 30.2 71 1021.3 9 ENE 0.0
Finca La Gloria 27/05/2024 22:45 17.4 15.9 26.1 80 1019.7 18.4 NNE 0.0
Hondo de Carboneras 27/05/2024 22:50 19.9 12.8 30.8 69 1019.3 13.00 NNE 0.0
Hondo de la Lagunilla 27/05/2024 22:53 19.4 15.4 30.5 72 1017.3 3.6 SW 0.0
La Boquera 27/05/2024 22:54 19.5 12.6 31.8 70 1020.1 4.7 ENE 0.0
La Encina 27/05/2024 22:52 17.8 15.7 27.2 80 1020.32 12.9 ESE 0.0
La Lagunilla 27/05/2024 22:52 19.6 16.8 31.4 63 1014.6 14.5 NE 0.0
La Parrala 27/05/2024 22:51 19.2 16.9 30.6 73 1019.20 12.9 NNE 0.0
La Zafra 27/05/2024 22:50 17.5 16.0 26.6 80 1016.6 14.3 NNE 0.0
Las Quebradas 27/05/2024 22:53 19.5 15.4 31.8 70 1022.0 5.5 NNE 0.0
Las Virtudes 27/05/2024 22:50 20.1 15.2 32.0 71 1018.1 8.0 NNE 0.0
Peña Rubia 27/05/2024 22:50 18.9 14.1 32.1 73 1022.2 1.8 E 0.0
Sierra Salinas 27/05/2024 22:50 14.3 14.3 25.8 87 1015.95 0.0 - 0.0
Sierra de La Villa 27/05/2024 22:50 17.2 14.9 29.9 77 1016.1 19.3 ENE 0.0
Colonia de Sierra Salinas 27/05/2024 22:54 17.0 12.9 28.4 81 1016.8 1.8 ENE 0.0
Cabrera - Casa Anvers 27/05/2024 22:50 19.2 15.5 30.8 80 1019.6 0.0 ENE 0.0